createdAt,value
2017-12-03T00:01:12.240Z,102086.08
2017-12-03T00:03:39.855Z,102091.68
2017-12-03T00:06:07.716Z,102091.53
2017-12-03T00:08:35.342Z,102093.22
2017-12-03T00:11:02.935Z,102088.64
2017-12-03T00:13:30.545Z,102094.77
2017-12-03T00:15:58.150Z,102088.16
2017-12-03T00:18:25.829Z,102087.28
2017-12-03T00:20:53.432Z,102081.86
2017-12-03T00:23:21.028Z,102084.11
2017-12-03T00:25:48.637Z,102085.03
2017-12-03T00:28:16.248Z,102089.94
2017-12-03T00:30:43.908Z,102085.61
2017-12-03T00:33:11.531Z,102079.75
2017-12-03T00:35:39.128Z,102079.36
2017-12-03T00:38:06.794Z,102077.44
2017-12-03T00:40:34.687Z,102073.68
2017-12-03T00:43:02.614Z,102074.96
2017-12-03T00:45:30.825Z,102068.80
2017-12-03T00:47:59.092Z,102065.75
2017-12-03T00:50:27.315Z,102064.50
2017-12-03T00:52:55.601Z,102068.53
2017-12-03T00:55:23.836Z,102067.85
2017-12-03T00:57:51.512Z,102060.45
2017-12-03T01:00:19.420Z,102073.62
2017-12-03T01:02:47.292Z,102057.98
2017-12-03T01:05:14.921Z,102059.77
2017-12-03T01:07:42.880Z,102059.19
2017-12-03T01:10:10.468Z,102059.73
2017-12-03T01:12:38.056Z,102057.09
2017-12-03T01:15:05.755Z,102051.92
2017-12-03T01:17:33.958Z,102051.25
2017-12-03T01:20:02.026Z,102046.50
2017-12-03T01:22:30.144Z,102040.34
2017-12-03T01:24:58.069Z,102045.75
2017-12-03T01:27:25.691Z,102039.11
2017-12-03T01:29:53.284Z,102032.73
2017-12-03T01:32:21.258Z,102035.91
2017-12-03T01:34:48.837Z,102034.41
2017-12-03T01:37:16.635Z,102031.93
2017-12-03T01:39:44.545Z,102036.03
2017-12-03T01:42:12.207Z,102039.17
2017-12-03T01:44:39.844Z,102038.61
2017-12-03T01:47:08.059Z,102030.18
2017-12-03T01:49:35.713Z,102026.31
2017-12-03T01:52:03.370Z,102024.86
2017-12-03T01:54:31.034Z,102020.72
2017-12-03T01:56:58.665Z,102018.52
2017-12-03T01:59:26.572Z,102013.84
2017-12-03T02:01:54.148Z,102015.77
2017-12-03T02:04:21.758Z,102011.78
2017-12-03T02:06:49.444Z,102010.39
2017-12-03T02:09:17.425Z,102006.13
2017-12-03T02:11:45.811Z,102006.41
2017-12-03T02:14:13.406Z,102011.02
2017-12-03T02:16:41.029Z,102007.58
2017-12-03T02:19:09.348Z,102007.28
2017-12-03T02:21:36.968Z,102009.64
2017-12-03T02:24:04.681Z,102007.47
2017-12-03T02:26:32.599Z,102007.36
2017-12-03T02:29:00.208Z,102004.08
2017-12-03T02:31:27.879Z,102000.02
2017-12-03T02:33:55.559Z,102001.28
2017-12-03T02:36:23.759Z,101995.48
2017-12-03T02:38:51.553Z,101997.46
2017-12-03T02:41:19.322Z,101990.92
2017-12-03T02:43:47.294Z,101986.60
2017-12-03T02:46:15.200Z,101991.62
2017-12-03T02:48:42.864Z,101985.98
2017-12-03T02:51:10.470Z,101979.22
2017-12-03T02:53:38.194Z,101979.41
2017-12-03T02:56:05.789Z,101975.35
2017-12-03T02:58:34.349Z,101981.19
2017-12-03T03:01:02.096Z,101974.70
2017-12-03T03:03:30.010Z,101976.09
2017-12-03T03:05:57.624Z,101968.36
2017-12-03T03:08:25.207Z,101969.59
2017-12-03T03:10:52.834Z,101971.59
2017-12-03T03:13:20.760Z,101965.22
2017-12-03T03:15:48.352Z,101960.73
2017-12-03T03:18:16.308Z,101957.77
2017-12-03T03:20:43.895Z,101957.73
2017-12-03T03:23:11.529Z,101956.22
2017-12-03T03:25:39.393Z,101953.16
2017-12-03T03:28:06.970Z,101954.21
2017-12-03T03:30:34.580Z,101947.30
2017-12-03T03:33:02.168Z,101945.13
2017-12-03T03:35:30.041Z,101942.86
2017-12-03T03:37:57.616Z,101941.58
2017-12-03T03:40:25.262Z,101938.13
2017-12-03T03:42:53.129Z,101942.45
2017-12-03T03:45:20.700Z,101940.17
2017-12-03T03:47:48.361Z,101931.55
2017-12-03T03:50:15.944Z,101931.83
2017-12-03T03:52:43.587Z,101938.08
2017-12-03T03:55:11.652Z,101933.70
2017-12-03T03:57:39.316Z,101928.77
2017-12-03T04:00:07.286Z,101934.72
2017-12-03T04:02:34.950Z,101931.05
2017-12-03T04:05:02.543Z,101932.52
2017-12-03T04:07:30.161Z,101932.20
2017-12-03T04:09:57.926Z,101927.60
2017-12-03T04:12:25.548Z,101926.64
2017-12-03T04:14:53.464Z,101927.28
2017-12-03T04:17:22.264Z,101925.50
2017-12-03T04:19:49.888Z,101921.89
2017-12-03T04:22:17.577Z,101923.24
2017-12-03T04:24:45.872Z,101923.77
2017-12-03T04:27:13.451Z,101915.31
2017-12-03T04:29:41.032Z,101915.72
2017-12-03T04:32:08.648Z,101920.12
2017-12-03T04:34:36.494Z,101917.63
2017-12-03T04:37:04.132Z,101922.98
2017-12-03T04:39:31.738Z,101924.50
2017-12-03T04:41:59.356Z,101925.16
2017-12-03T04:44:27.066Z,101923.68
2017-12-03T04:46:54.675Z,101920.93
2017-12-03T04:49:22.313Z,101920.34
2017-12-03T04:51:49.916Z,101919.66
2017-12-03T04:54:17.500Z,101916.25
2017-12-03T04:56:45.121Z,101911.87
2017-12-03T04:59:13.040Z,101904.80
2017-12-03T05:01:40.666Z,101895.89
2017-12-03T05:04:08.255Z,101898.56
2017-12-03T05:06:35.852Z,101890.92
2017-12-03T05:09:03.491Z,101888.72
2017-12-03T05:11:31.356Z,101885.05
2017-12-03T05:13:59.035Z,101880.27
2017-12-03T05:16:26.989Z,101882.42
2017-12-03T05:18:54.577Z,101878.61
2017-12-03T05:21:22.192Z,101877.80
2017-12-03T05:23:50.080Z,101871.03
2017-12-03T05:26:17.785Z,101879.06
2017-12-03T05:28:45.364Z,101877.68
2017-12-03T05:31:12.973Z,101875.70
2017-12-03T05:33:40.587Z,101881.30
2017-12-03T05:36:08.241Z,101876.48
2017-12-03T05:38:36.164Z,101872.03
2017-12-03T05:41:03.758Z,101869.61
2017-12-03T05:43:31.341Z,101865.70
2017-12-03T05:45:59.264Z,101865.55
2017-12-03T05:48:26.867Z,101861.76
2017-12-03T05:50:54.508Z,101865.65
2017-12-03T05:53:22.105Z,101870.36
2017-12-03T05:55:49.700Z,101864.39
2017-12-03T05:58:17.309Z,101861.88
2017-12-03T06:00:45.034Z,101858.86
2017-12-03T06:03:13.257Z,101865.81
2017-12-03T06:05:40.844Z,101856.97
2017-12-03T06:08:08.454Z,101864.95
2017-12-03T06:10:36.402Z,101852.62
2017-12-03T06:13:04.505Z,101851.56
2017-12-03T06:15:32.550Z,101851.94
2017-12-03T06:18:00.122Z,101855.30
2017-12-03T06:20:28.229Z,101857.13
2017-12-03T06:22:55.849Z,101853.58
2017-12-03T06:25:23.960Z,101856.73
2017-12-03T06:27:52.596Z,101857.50
2017-12-03T06:30:20.480Z,101848.77
2017-12-03T06:32:48.533Z,101854.14
2017-12-03T06:35:16.142Z,101857.59
2017-12-03T06:37:43.740Z,101863.16
2017-12-03T06:40:11.376Z,101853.77
2017-12-03T06:42:38.970Z,101851.81
2017-12-03T06:45:06.584Z,101842.03
2017-12-03T06:47:34.204Z,101849.44
2017-12-03T06:50:02.089Z,101854.06
2017-12-03T06:52:29.720Z,101854.19
2017-12-03T06:54:57.333Z,101859.28
2017-12-03T06:57:25.222Z,101855.34
2017-12-03T06:59:52.864Z,101856.58
2017-12-03T07:02:20.474Z,101858.98
2017-12-03T07:04:48.064Z,101858.56
2017-12-03T07:07:15.722Z,101856.55
2017-12-03T07:09:43.316Z,101854.01
2017-12-03T07:12:10.909Z,101858.52
2017-12-03T07:14:38.579Z,101864.70
2017-12-03T07:17:06.163Z,101860.03
2017-12-03T07:19:33.750Z,101852.62
2017-12-03T07:22:01.387Z,101850.37
2017-12-03T07:24:28.967Z,101850.53
2017-12-03T07:26:56.626Z,101847.64
2017-12-03T07:29:24.598Z,101845.75
2017-12-03T07:31:52.176Z,101859.41
2017-12-03T07:34:20.049Z,101865.35
2017-12-03T07:36:47.698Z,101855.98
2017-12-03T07:39:15.660Z,101860.58
2017-12-03T07:41:43.269Z,101863.50
2017-12-03T07:44:10.859Z,101859.17
2017-12-03T07:46:38.499Z,101856.70
2017-12-03T07:49:06.409Z,101861.41
2017-12-03T07:51:34.276Z,101850.53
2017-12-03T07:54:01.895Z,101860.91
2017-12-03T07:56:29.501Z,101858.20
2017-12-03T07:58:57.140Z,101849.88
2017-12-03T08:01:24.810Z,101847.45
2017-12-03T08:03:52.416Z,101856.59
2017-12-03T08:06:20.051Z,101853.58
2017-12-03T08:08:47.653Z,101863.73
2017-12-03T08:11:15.469Z,101855.34
2017-12-03T08:13:43.039Z,101864.30
2017-12-03T08:16:10.630Z,101857.67
2017-12-03T08:18:38.250Z,101870.63
2017-12-03T08:21:06.124Z,101871.33
2017-12-03T08:23:33.777Z,101858.56
2017-12-03T08:26:02.601Z,101863.44
2017-12-03T08:28:30.227Z,101855.81
2017-12-03T08:30:57.841Z,101863.03
2017-12-03T08:33:25.447Z,101852.06
2017-12-03T08:35:53.071Z,101850.91
2017-12-03T08:38:20.670Z,101846.75
2017-12-03T08:40:48.266Z,101847.60
2017-12-03T08:43:15.934Z,101846.13
2017-12-03T08:45:43.535Z,101853.28
2017-12-03T08:48:11.177Z,101850.27
2017-12-03T08:50:38.775Z,101851.30
2017-12-03T08:53:06.361Z,101848.56
2017-12-03T08:55:33.984Z,101851.97
2017-12-03T08:58:01.579Z,101849.61
2017-12-03T09:00:29.532Z,101840.34
2017-12-03T09:02:57.116Z,101838.33
2017-12-03T09:05:24.721Z,101846.28
2017-12-03T09:07:52.333Z,101836.71
2017-12-03T09:10:19.955Z,101827.78
2017-12-03T09:12:47.587Z,101832.30
2017-12-03T09:15:15.216Z,101824.39
2017-12-03T09:17:42.842Z,101818.22
2017-12-03T09:20:10.440Z,101810.41
2017-12-03T09:22:38.355Z,101805.34
2017-12-03T09:25:06.053Z,101805.87
2017-12-03T09:27:33.653Z,101811.75
2017-12-03T09:31:36.281Z,101812.20
2017-12-03T09:34:03.866Z,101807.69
2017-12-03T09:36:31.507Z,101800.40
2017-12-03T09:38:59.082Z,101799.59
2017-12-03T09:41:26.723Z,101796.52
2017-12-03T09:43:54.346Z,101792.33
2017-12-03T09:46:21.970Z,101790.65
2017-12-03T09:48:49.613Z,101786.66
2017-12-03T09:51:17.223Z,101777.53
2017-12-03T09:53:45.088Z,101781.78
2017-12-03T09:56:12.716Z,101778.02
2017-12-03T09:58:44.426Z,101776.21
2017-12-03T10:01:12.056Z,101769.52
2017-12-03T10:03:40.468Z,101765.70
2017-12-03T10:06:08.142Z,101753.50
2017-12-03T10:08:35.776Z,101752.95
2017-12-03T10:11:03.394Z,101751.22
2017-12-03T10:13:31.038Z,101756.56
2017-12-03T10:15:58.621Z,101742.95
2017-12-03T10:18:26.544Z,101732.04
2017-12-03T10:20:54.176Z,101730.98
2017-12-03T10:23:22.077Z,101724.25
2017-12-03T10:25:49.701Z,101730.30
2017-12-03T10:28:17.619Z,101728.36
2017-12-03T10:30:45.210Z,101717.64
2017-12-03T10:33:12.872Z,101715.78
2017-12-03T10:35:40.539Z,101714.11
2017-12-03T10:38:19.818Z,101706.42
2017-12-03T10:40:47.397Z,101699.59
2017-12-03T10:43:14.988Z,101703.77
2017-12-03T10:45:42.636Z,101698.01
2017-12-03T10:48:10.291Z,101695.27
2017-12-03T10:50:37.948Z,101684.09
2017-12-03T10:53:05.821Z,101685.72
2017-12-03T10:55:33.694Z,101676.50
2017-12-03T10:58:01.324Z,101680.75
2017-12-03T11:00:29.214Z,101677.55
2017-12-03T11:02:56.870Z,101674.91
2017-12-03T11:05:24.584Z,101677.39
2017-12-03T11:07:52.179Z,101674.91
2017-12-03T11:10:19.807Z,101666.95
2017-12-03T11:12:47.729Z,101674.34
2017-12-03T11:15:15.382Z,101666.44
2017-12-03T11:17:42.992Z,101659.72
2017-12-03T11:20:10.920Z,101661.54
2017-12-03T11:22:38.587Z,101651.36
2017-12-03T11:25:06.188Z,101649.44
2017-12-03T11:27:33.808Z,101650.03
2017-12-03T11:30:01.387Z,101647.81
2017-12-03T11:32:29.236Z,101639.34
2017-12-03T11:34:56.889Z,101625.30
2017-12-03T11:37:24.477Z,101627.78
2017-12-03T11:39:52.139Z,101626.00
2017-12-03T11:42:19.764Z,101621.13
2017-12-03T11:44:47.341Z,101616.66
2017-12-03T11:47:14.990Z,101611.02
2017-12-03T11:49:42.884Z,101606.69
2017-12-03T11:52:10.521Z,101606.33
2017-12-03T11:54:38.096Z,101599.20
2017-12-03T11:57:05.737Z,101590.33
2017-12-03T11:59:33.361Z,101589.53
2017-12-03T12:02:00.962Z,101589.02
2017-12-03T12:04:28.619Z,101594.21
2017-12-03T12:06:56.222Z,101588.80
2017-12-03T12:09:24.088Z,101583.89
2017-12-03T12:11:51.749Z,101575.67
2017-12-03T12:14:19.614Z,101576.42
2017-12-03T12:16:47.242Z,101567.47
2017-12-03T12:19:14.837Z,101571.91
2017-12-03T12:21:42.705Z,101574.16
2017-12-03T12:24:10.329Z,101571.58
2017-12-03T12:26:37.924Z,101552.97
2017-12-03T12:29:05.564Z,101552.34
2017-12-03T12:31:33.156Z,101555.50
2017-12-03T12:34:00.783Z,101543.98
2017-12-03T12:36:28.450Z,101540.80
2017-12-03T12:38:56.033Z,101548.36
2017-12-03T12:41:23.703Z,101547.17
2017-12-03T12:43:51.316Z,101545.20
2017-12-03T12:46:18.895Z,101534.16
2017-12-03T12:48:46.525Z,101525.41
2017-12-03T12:51:14.111Z,101526.59
2017-12-03T12:53:41.759Z,101529.22
2017-12-03T12:56:09.360Z,101525.75
2017-12-03T12:58:37.239Z,101526.97
2017-12-03T13:01:04.904Z,101534.81
2017-12-03T13:03:32.768Z,101527.30
2017-12-03T13:06:00.396Z,101518.98
2017-12-03T13:08:27.998Z,101520.16
2017-12-03T13:10:55.596Z,101513.53
2017-12-03T13:13:23.232Z,101501.95
2017-12-03T13:15:51.083Z,101502.62
2017-12-03T13:18:18.704Z,101502.05
2017-12-03T13:20:46.319Z,101493.14
2017-12-03T13:23:13.947Z,101501.59
2017-12-03T13:25:41.570Z,101498.20
2017-12-03T13:28:09.179Z,101501.31
2017-12-03T13:30:36.806Z,101493.61
2017-12-03T13:33:04.729Z,101492.24
2017-12-03T13:35:32.648Z,101479.98
2017-12-03T13:38:00.315Z,101484.25
2017-12-03T13:40:27.954Z,101482.23
2017-12-03T13:42:55.584Z,101479.69
2017-12-03T13:45:23.181Z,101480.55
2017-12-03T13:47:51.014Z,101479.92
2017-12-03T13:50:18.648Z,101475.93
2017-12-03T13:52:46.632Z,101472.60
2017-12-03T13:55:14.250Z,101468.51
2017-12-03T13:57:41.852Z,101469.08
2017-12-03T14:00:09.543Z,101473.82
2017-12-03T14:02:37.185Z,101474.77
2017-12-03T14:05:05.071Z,101460.94
2017-12-03T14:07:32.687Z,101469.64
2017-12-03T14:10:00.348Z,101458.41
2017-12-03T14:12:27.955Z,101463.59
2017-12-03T14:14:55.550Z,101456.44
2017-12-03T14:17:23.245Z,101454.66
2017-12-03T14:19:50.855Z,101464.33
2017-12-03T14:22:18.452Z,101472.50
2017-12-03T14:24:46.076Z,101472.64
2017-12-03T14:27:13.660Z,101471.18
2017-12-03T14:29:42.636Z,101478.66
2017-12-03T14:32:10.238Z,101468.55
2017-12-03T14:34:37.831Z,101463.34
2017-12-03T14:37:05.807Z,101466.73
2017-12-03T14:39:33.401Z,101462.40
2017-12-03T14:42:01.028Z,101461.50
2017-12-03T14:44:28.628Z,101461.13
2017-12-03T14:46:56.227Z,101466.96
2017-12-03T14:49:23.868Z,101465.55
2017-12-03T14:51:51.450Z,101469.39
2017-12-03T14:54:19.091Z,101467.66
2017-12-03T14:56:46.688Z,101457.31
2017-12-03T14:59:14.287Z,101459.91
2017-12-03T15:01:42.235Z,101446.44
2017-12-03T15:04:09.840Z,101445.68
2017-12-03T15:06:37.506Z,101445.58
2017-12-03T15:09:05.429Z,101451.86
2017-12-03T15:11:33.347Z,101437.97
2017-12-03T15:14:00.986Z,101440.06
2017-12-03T15:16:28.840Z,101430.03
2017-12-03T15:18:56.466Z,101432.56
2017-12-03T15:21:24.064Z,101433.13
2017-12-03T15:23:51.647Z,101433.25
2017-12-03T15:26:19.257Z,101431.13
2017-12-03T15:28:46.852Z,101438.88
2017-12-03T15:31:14.515Z,101430.01
2017-12-03T15:33:42.112Z,101427.06
2017-12-03T15:36:09.701Z,101423.63
2017-12-03T15:38:37.556Z,101422.69
2017-12-03T15:41:05.467Z,101422.83
2017-12-03T15:43:33.094Z,101422.25
2017-12-03T15:46:00.667Z,101430.01
2017-12-03T15:48:28.252Z,101422.31
2017-12-03T15:50:55.872Z,101415.78
2017-12-03T15:53:23.776Z,101423.30
2017-12-03T15:55:51.443Z,101422.45
2017-12-03T15:58:19.037Z,101418.98
2017-12-03T16:00:46.970Z,101419.21
2017-12-03T16:03:14.579Z,101417.75
2017-12-03T16:05:42.164Z,101426.68
2017-12-03T16:08:09.800Z,101417.98
2017-12-03T16:10:37.738Z,101414.85
2017-12-03T16:13:05.330Z,101423.83
2017-12-03T16:15:32.968Z,101417.91
2017-12-03T16:18:00.569Z,101414.53
2017-12-03T16:20:28.195Z,101408.44
2017-12-03T16:22:55.804Z,101402.32
2017-12-03T16:25:24.735Z,101396.50
2017-12-03T16:27:52.816Z,101390.02
2017-12-03T16:30:20.784Z,101401.11
2017-12-03T16:32:48.749Z,101398.56
2017-12-03T16:35:16.345Z,101395.28
2017-12-03T16:37:44.279Z,101401.29
2017-12-03T16:40:11.939Z,101407.26
2017-12-03T16:42:39.520Z,101405.00
2017-12-03T16:45:07.135Z,101401.91
2017-12-03T16:47:34.749Z,101401.33
2017-12-03T16:50:02.387Z,101393.67
2017-12-03T16:52:30.013Z,101397.86
2017-12-03T16:54:57.601Z,101413.84
2017-12-03T16:57:25.218Z,101399.75
2017-12-03T16:59:52.848Z,101397.67
2017-12-03T17:02:20.463Z,101409.89
2017-12-03T17:04:48.088Z,101402.52
2017-12-03T17:07:15.688Z,101406.31
2017-12-03T17:09:43.323Z,101405.84
2017-12-03T17:12:10.929Z,101412.51
2017-12-03T17:14:38.575Z,101409.47
2017-12-03T17:17:06.187Z,101411.62
2017-12-03T17:19:33.812Z,101409.45
2017-12-03T17:22:01.430Z,101414.30
2017-12-03T17:24:29.362Z,101400.45
2017-12-03T17:26:57.229Z,101404.72
2017-12-03T17:29:25.095Z,101409.23
2017-12-03T17:31:52.692Z,101404.77
2017-12-03T17:34:20.325Z,101400.02
2017-12-03T17:36:48.183Z,101398.48
2017-12-03T17:39:15.768Z,101393.92
2017-12-03T17:41:43.414Z,101389.83
2017-12-03T17:44:11.276Z,101389.50
2017-12-03T17:46:38.932Z,101384.86
2017-12-03T17:49:06.533Z,101384.02
2017-12-03T17:51:34.124Z,101391.14
2017-12-03T17:54:01.739Z,101392.84
2017-12-03T17:56:29.373Z,101390.59
2017-12-03T17:58:57.032Z,101387.30
2017-12-03T18:01:24.628Z,101389.31
2017-12-03T18:03:52.257Z,101384.44
2017-12-03T18:06:19.867Z,101381.66
2017-12-03T18:08:47.479Z,101382.66
2017-12-03T18:11:15.125Z,101378.80
2017-12-03T18:13:42.743Z,101381.44
2017-12-03T18:16:10.351Z,101378.89
2017-12-03T18:18:38.024Z,101373.30
2017-12-03T18:21:05.609Z,101379.30
2017-12-03T18:23:33.255Z,101376.36
2017-12-03T18:26:00.851Z,101375.41
2017-12-03T18:28:28.451Z,101379.03
2017-12-03T18:30:56.124Z,101378.52
2017-12-03T18:33:24.030Z,101377.84
2017-12-03T18:35:51.670Z,101376.99
2017-12-03T18:38:19.260Z,101381.69
2017-12-03T18:40:46.852Z,101379.48
2017-12-03T18:43:14.482Z,101377.88
2017-12-03T18:45:42.074Z,101373.36
2017-12-03T18:48:09.792Z,101364.41
2017-12-03T18:50:37.415Z,101368.30
2017-12-03T18:53:04.991Z,101362.05
2017-12-03T18:55:32.722Z,101364.63
2017-12-03T18:58:00.342Z,101366.23
2017-12-03T19:00:27.986Z,101368.52
2017-12-03T19:02:55.670Z,101360.16
2017-12-03T19:05:23.291Z,101366.64
2017-12-03T19:07:50.912Z,101362.63
2017-12-03T19:10:18.513Z,101361.72
2017-12-03T19:12:46.208Z,101361.59
2017-12-03T19:15:13.838Z,101357.96
2017-12-03T19:17:41.759Z,101363.69
2017-12-03T19:20:09.427Z,101368.05
2017-12-03T19:22:37.033Z,101361.27
2017-12-03T19:25:04.691Z,101361.96
2017-12-03T19:27:32.464Z,101358.96
2017-12-03T19:30:00.116Z,101354.41
2017-12-03T19:32:28.390Z,101353.67
2017-12-03T19:34:55.980Z,101353.75
2017-12-03T19:37:23.622Z,101355.13
2017-12-03T19:39:51.232Z,101350.34
2017-12-03T19:42:18.815Z,101346.47
2017-12-03T19:44:46.441Z,101349.92
2017-12-03T19:47:14.036Z,101342.07
2017-12-03T19:49:41.651Z,101346.02
2017-12-03T19:52:09.292Z,101344.89
2017-12-03T19:54:36.876Z,101341.31
2017-12-03T19:57:04.576Z,101350.42
2017-12-03T19:59:32.159Z,101338.65
2017-12-03T20:01:59.794Z,101336.41
2017-12-03T20:04:27.380Z,101339.89
2017-12-03T20:06:54.994Z,101335.84
2017-12-03T20:09:22.604Z,101334.52
2017-12-03T20:11:50.182Z,101329.63
2017-12-03T20:14:17.805Z,101330.97
2017-12-03T20:16:45.388Z,101332.70
2017-12-03T20:19:12.963Z,101328.70
2017-12-03T20:21:40.606Z,101334.63
2017-12-03T20:24:08.187Z,101342.16
2017-12-03T20:26:35.822Z,101341.27
2017-12-03T20:29:03.404Z,101343.97
2017-12-03T20:31:31.002Z,101342.66
2017-12-03T20:33:58.628Z,101341.89
2017-12-03T20:36:26.235Z,101344.31
2017-12-03T20:38:53.883Z,101342.36
2017-12-03T20:41:22.878Z,101345.52
2017-12-03T20:43:50.519Z,101339.98
2017-12-03T20:46:18.164Z,101339.09
2017-12-03T20:48:45.749Z,101337.69
2017-12-03T20:51:13.681Z,101330.61
2017-12-03T20:53:41.366Z,101327.31
2017-12-03T20:56:08.979Z,101328.84
2017-12-03T20:58:36.562Z,101338.97
2017-12-03T21:01:04.429Z,101332.40
2017-12-03T21:03:32.027Z,101316.36
2017-12-03T21:05:59.629Z,101322.62
2017-12-03T21:08:27.248Z,101323.45
2017-12-03T21:10:54.848Z,101325.01
2017-12-03T21:13:22.482Z,101327.94
2017-12-03T21:15:50.436Z,101321.31
2017-12-03T21:18:18.048Z,101326.70
2017-12-03T21:20:45.674Z,101320.31
2017-12-03T21:23:13.978Z,101314.41
2017-12-03T21:25:41.617Z,101320.37
2017-12-03T21:28:09.313Z,101330.27
2017-12-03T21:30:36.921Z,101318.91
2017-12-03T21:33:04.562Z,101325.72
2017-12-03T21:35:32.159Z,101322.60
2017-12-03T21:37:59.794Z,101329.67
2017-12-03T21:40:27.649Z,101333.48
2017-12-03T21:42:55.232Z,101333.47
2017-12-03T21:45:22.855Z,101329.10
2017-12-03T21:47:50.443Z,101333.70
2017-12-03T21:50:18.162Z,101337.76
2017-12-03T21:52:45.812Z,101334.91
2017-12-03T21:55:13.429Z,101332.69
2017-12-03T21:57:41.107Z,101333.17
2017-12-03T22:00:08.697Z,101333.70
2017-12-03T22:02:36.343Z,101339.82
2017-12-03T22:05:04.083Z,101332.48
2017-12-03T22:07:31.737Z,101333.53
2017-12-03T22:09:59.344Z,101337.19
2017-12-03T22:12:26.964Z,101325.57
2017-12-03T22:14:54.602Z,101322.30
2017-12-03T22:17:22.189Z,101313.49
2017-12-03T22:19:49.803Z,101325.56
2017-12-03T22:22:17.526Z,101326.16
2017-12-03T22:24:45.147Z,101328.00
2017-12-03T22:27:12.772Z,101326.30
2017-12-03T22:29:40.424Z,101320.30
2017-12-03T22:32:08.036Z,101329.28
2017-12-03T22:34:35.674Z,101318.81
2017-12-03T22:37:03.291Z,101319.29
2017-12-03T22:39:30.918Z,101316.94
2017-12-03T22:41:58.496Z,101321.26
2017-12-03T22:44:26.376Z,101319.61
2017-12-03T22:46:54.154Z,101327.52
2017-12-03T22:49:21.743Z,101320.84
2017-12-03T22:51:49.355Z,101321.09
2017-12-03T22:54:17.241Z,101316.55
2017-12-03T22:56:44.855Z,101322.36
2017-12-03T22:59:12.461Z,101318.88
2017-12-03T23:01:40.055Z,101309.55
2017-12-03T23:04:07.687Z,101317.99
2017-12-03T23:06:35.549Z,101315.30
2017-12-03T23:09:03.148Z,101310.17
2017-12-03T23:11:30.768Z,101301.59
2017-12-03T23:13:58.368Z,101312.75
2017-12-03T23:16:25.994Z,101319.58
2017-12-03T23:18:53.588Z,101311.80
2017-12-03T23:21:21.184Z,101304.00
2017-12-03T23:23:48.812Z,101305.63
2017-12-03T23:26:16.431Z,101311.86
2017-12-03T23:28:44.312Z,101308.69
2017-12-03T23:31:11.918Z,101303.36
2017-12-03T23:33:39.515Z,101300.83
2017-12-03T23:36:07.165Z,101293.27
2017-12-03T23:38:34.760Z,101291.00
2017-12-03T23:41:02.378Z,101295.92
2017-12-03T23:43:29.961Z,101287.35
2017-12-03T23:45:57.561Z,101291.11
2017-12-03T23:48:25.969Z,101293.89
2017-12-03T23:50:53.560Z,101307.67
2017-12-03T23:53:21.187Z,101308.98
2017-12-03T23:55:48.800Z,101301.55
2017-12-03T23:58:16.683Z,101302.70
